sensor_id;sensor_type;location;lat;lon;timestamp;P1;durP1;ratioP1;P2;durP2;ratioP2
66886;SDS011;53798;51.680;5.976;2022-08-21T00:00:26;11.07;;;4.75;;
66886;SDS011;53798;51.680;5.976;2022-08-21T00:03:03;8.15;;;4.60;;
66886;SDS011;53798;51.680;5.976;2022-08-21T00:05:36;8.00;;;4.85;;
66886;SDS011;53798;51.680;5.976;2022-08-21T00:08:11;6.30;;;4.72;;
66886;SDS011;53798;51.680;5.976;2022-08-21T00:10:40;11.00;;;5.05;;
66886;SDS011;53798;51.680;5.976;2022-08-21T00:13:09;6.72;;;4.75;;
66886;SDS011;53798;51.680;5.976;2022-08-21T00:15:42;8.03;;;5.17;;
66886;SDS011;53798;51.680;5.976;2022-08-21T00:18:10;7.95;;;4.88;;
66886;SDS011;53798;51.680;5.976;2022-08-21T00:20:39;9.48;;;4.93;;
66886;SDS011;53798;51.680;5.976;2022-08-21T00:23:07;9.15;;;5.18;;
66886;SDS011;53798;51.680;5.976;2022-08-21T00:25:35;10.85;;;5.10;;
66886;SDS011;53798;51.680;5.976;2022-08-21T00:28:03;8.77;;;4.75;;
66886;SDS011;53798;51.680;5.976;2022-08-21T00:30:33;8.20;;;4.70;;
66886;SDS011;53798;51.680;5.976;2022-08-21T00:33:00;7.40;;;4.70;;
66886;SDS011;53798;51.680;5.976;2022-08-21T00:35:30;9.45;;;4.97;;
66886;SDS011;53798;51.680;5.976;2022-08-21T00:38:01;10.65;;;5.50;;
66886;SDS011;53798;51.680;5.976;2022-08-21T00:40:35;8.88;;;4.93;;
66886;SDS011;53798;51.680;5.976;2022-08-21T00:43:17;7.78;;;4.80;;
66886;SDS011;53798;51.680;5.976;2022-08-21T00:45:51;7.18;;;4.32;;
66886;SDS011;53798;51.680;5.976;2022-08-21T00:48:20;10.82;;;5.28;;
66886;SDS011;53798;51.680;5.976;2022-08-21T00:50:49;8.85;;;5.20;;
66886;SDS011;53798;51.680;5.976;2022-08-21T00:53:31;6.47;;;4.50;;
66886;SDS011;53798;51.680;5.976;2022-08-21T00:55:59;7.25;;;3.90;;
66886;SDS011;53798;51.680;5.976;2022-08-21T00:58:31;6.47;;;4.43;;
66886;SDS011;53798;51.680;5.976;2022-08-21T01:01:04;7.15;;;4.70;;
66886;SDS011;53798;51.680;5.976;2022-08-21T01:03:34;7.38;;;4.50;;
66886;SDS011;53798;51.680;5.976;2022-08-21T01:06:04;7.28;;;4.85;;
66886;SDS011;53798;51.680;5.976;2022-08-21T01:08:32;8.70;;;5.10;;
66886;SDS011;53798;51.680;5.976;2022-08-21T01:11:01;9.68;;;5.45;;
66886;SDS011;53798;51.680;5.976;2022-08-21T01:13:32;7.15;;;5.00;;
66886;SDS011;53798;51.680;5.976;2022-08-21T01:16:04;6.43;;;4.55;;
66886;SDS011;53798;51.680;5.976;2022-08-21T01:18:35;7.43;;;4.57;;
66886;SDS011;53798;51.680;5.976;2022-08-21T01:21:04;10.32;;;4.95;;
66886;SDS011;53798;51.680;5.976;2022-08-21T01:23:40;8.30;;;4.80;;
66886;SDS011;53798;51.680;5.976;2022-08-21T01:26:12;7.90;;;4.80;;
66886;SDS011;53798;51.680;5.976;2022-08-21T01:28:54;7.28;;;4.47;;
66886;SDS011;53798;51.680;5.976;2022-08-21T01:31:28;8.10;;;5.07;;
66886;SDS011;53798;51.680;5.976;2022-08-21T01:33:58;8.18;;;5.13;;
66886;SDS011;53798;51.680;5.976;2022-08-21T01:36:26;6.78;;;4.80;;
66886;SDS011;53798;51.680;5.976;2022-08-21T01:38:54;7.45;;;4.57;;
66886;SDS011;53798;51.680;5.976;2022-08-21T01:41:23;6.93;;;4.93;;
66886;SDS011;53798;51.680;5.976;2022-08-21T01:43:50;8.68;;;5.13;;
66886;SDS011;53798;51.680;5.976;2022-08-21T01:46:17;5.82;;;4.80;;
66886;SDS011;53798;51.680;5.976;2022-08-21T01:48:45;9.70;;;5.60;;
66886;SDS011;53798;51.680;5.976;2022-08-21T01:51:12;7.47;;;5.32;;
66886;SDS011;53798;51.680;5.976;2022-08-21T01:53:40;8.75;;;5.53;;
66886;SDS011;53798;51.680;5.976;2022-08-21T01:56:08;7.20;;;5.00;;
66886;SDS011;53798;51.680;5.976;2022-08-21T01:58:40;7.93;;;4.82;;
66886;SDS011;53798;51.680;5.976;2022-08-21T02:01:10;8.68;;;5.07;;
66886;SDS011;53798;51.680;5.976;2022-08-21T02:03:38;5.80;;;4.57;;
66886;SDS011;53798;51.680;5.976;2022-08-21T02:06:06;8.77;;;5.15;;
66886;SDS011;53798;51.680;5.976;2022-08-21T02:11:07;6.35;;;4.80;;
66886;SDS011;53798;51.680;5.976;2022-08-21T02:13:34;8.63;;;5.35;;
66886;SDS011;53798;51.680;5.976;2022-08-21T02:16:03;7.82;;;5.25;;
66886;SDS011;53798;51.680;5.976;2022-08-21T02:18:31;6.38;;;4.68;;
66886;SDS011;53798;51.680;5.976;2022-08-21T02:20:58;7.32;;;4.72;;
66886;SDS011;53798;51.680;5.976;2022-08-21T02:23:25;5.68;;;5.10;;
66886;SDS011;53798;51.680;5.976;2022-08-21T02:25:54;8.00;;;5.25;;
66886;SDS011;53798;51.680;5.976;2022-08-21T02:28:24;10.23;;;5.30;;
66886;SDS011;53798;51.680;5.976;2022-08-21T02:30:53;8.10;;;4.93;;
66886;SDS011;53798;51.680;5.976;2022-08-21T02:33:23;10.25;;;5.40;;
66886;SDS011;53798;51.680;5.976;2022-08-21T02:35:53;8.50;;;4.93;;
66886;SDS011;53798;51.680;5.976;2022-08-21T02:38:24;8.63;;;5.40;;
66886;SDS011;53798;51.680;5.976;2022-08-21T02:40:56;10.35;;;5.25;;
66886;SDS011;53798;51.680;5.976;2022-08-21T02:43:24;6.43;;;5.22;;
66886;SDS011;53798;51.680;5.976;2022-08-21T02:45:55;7.72;;;5.35;;
66886;SDS011;53798;51.680;5.976;2022-08-21T02:48:26;6.95;;;5.50;;
66886;SDS011;53798;51.680;5.976;2022-08-21T02:53:28;6.55;;;5.20;;
66886;SDS011;53798;51.680;5.976;2022-08-21T02:55:57;9.82;;;5.45;;
66886;SDS011;53798;51.680;5.976;2022-08-21T02:58:29;8.38;;;5.80;;
66886;SDS011;53798;51.680;5.976;2022-08-21T03:01:04;9.90;;;5.53;;
66886;SDS011;53798;51.680;5.976;2022-08-21T03:03:36;8.32;;;5.75;;
66886;SDS011;53798;51.680;5.976;2022-08-21T03:06:09;9.60;;;5.97;;
66886;SDS011;53798;51.680;5.976;2022-08-21T03:08:40;9.32;;;6.18;;
66886;SDS011;53798;51.680;5.976;2022-08-21T03:11:08;9.02;;;6.30;;
66886;SDS011;53798;51.680;5.976;2022-08-21T03:13:36;10.50;;;6.28;;
66886;SDS011;53798;51.680;5.976;2022-08-21T03:16:06;9.30;;;6.07;;
66886;SDS011;53798;51.680;5.976;2022-08-21T03:18:37;9.55;;;6.38;;
66886;SDS011;53798;51.680;5.976;2022-08-21T03:21:05;8.27;;;5.95;;
66886;SDS011;53798;51.680;5.976;2022-08-21T03:23:33;11.43;;;7.30;;
66886;SDS011;53798;51.680;5.976;2022-08-21T03:26:00;10.85;;;7.65;;
66886;SDS011;53798;51.680;5.976;2022-08-21T03:28:28;17.88;;;10.82;;
66886;SDS011;53798;51.680;5.976;2022-08-21T03:30:55;29.38;;;17.95;;
66886;SDS011;53798;51.680;5.976;2022-08-21T03:33:22;29.90;;;19.92;;
66886;SDS011;53798;51.680;5.976;2022-08-21T03:35:54;28.48;;;18.92;;
66886;SDS011;53798;51.680;5.976;2022-08-21T03:38:27;20.88;;;13.63;;
66886;SDS011;53798;51.680;5.976;2022-08-21T03:40:57;14.35;;;8.60;;
66886;SDS011;53798;51.680;5.976;2022-08-21T03:43:25;15.10;;;10.65;;
66886;SDS011;53798;51.680;5.976;2022-08-21T03:45:58;9.57;;;7.18;;
66886;SDS011;53798;51.680;5.976;2022-08-21T03:48:30;10.93;;;8.10;;
66886;SDS011;53798;51.680;5.976;2022-08-21T03:50:59;15.73;;;11.20;;
66886;SDS011;53798;51.680;5.976;2022-08-21T03:53:26;15.82;;;10.50;;
66886;SDS011;53798;51.680;5.976;2022-08-21T03:55:53;12.73;;;9.65;;
66886;SDS011;53798;51.680;5.976;2022-08-21T03:58:22;11.07;;;7.85;;
66886;SDS011;53798;51.680;5.976;2022-08-21T04:00:52;11.38;;;8.20;;
66886;SDS011;53798;51.680;5.976;2022-08-21T04:03:23;8.77;;;7.20;;
66886;SDS011;53798;51.680;5.976;2022-08-21T04:05:52;12.50;;;7.70;;
66886;SDS011;53798;51.680;5.976;2022-08-21T04:08:19;9.77;;;8.18;;
66886;SDS011;53798;51.680;5.976;2022-08-21T04:10:47;9.77;;;7.80;;
66886;SDS011;53798;51.680;5.976;2022-08-21T04:13:19;11.18;;;8.20;;
66886;SDS011;53798;51.680;5.976;2022-08-21T04:15:47;10.55;;;7.70;;
66886;SDS011;53798;51.680;5.976;2022-08-21T04:18:19;11.32;;;7.70;;
66886;SDS011;53798;51.680;5.976;2022-08-21T04:20:49;11.60;;;8.07;;
66886;SDS011;53798;51.680;5.976;2022-08-21T04:23:20;12.25;;;8.65;;
66886;SDS011;53798;51.680;5.976;2022-08-21T04:25:50;10.27;;;8.60;;
66886;SDS011;53798;51.680;5.976;2022-08-21T04:28:20;14.43;;;9.20;;
66886;SDS011;53798;51.680;5.976;2022-08-21T04:30:52;11.13;;;8.85;;
66886;SDS011;53798;51.680;5.976;2022-08-21T04:33:20;14.75;;;9.32;;
66886;SDS011;53798;51.680;5.976;2022-08-21T04:35:49;11.30;;;8.52;;
66886;SDS011;53798;51.680;5.976;2022-08-21T04:38:17;10.27;;;8.63;;
66886;SDS011;53798;51.680;5.976;2022-08-21T04:40:45;13.65;;;9.18;;
66886;SDS011;53798;51.680;5.976;2022-08-21T04:43:13;12.95;;;8.77;;
66886;SDS011;53798;51.680;5.976;2022-08-21T04:45:41;15.73;;;9.90;;
66886;SDS011;53798;51.680;5.976;2022-08-21T04:48:13;16.23;;;9.60;;
66886;SDS011;53798;51.680;5.976;2022-08-21T04:53:30;15.15;;;10.52;;
66886;SDS011;53798;51.680;5.976;2022-08-21T04:56:08;13.15;;;10.27;;
66886;SDS011;53798;51.680;5.976;2022-08-21T04:58:40;14.82;;;11.70;;
66886;SDS011;53798;51.680;5.976;2022-08-21T05:01:11;15.90;;;11.32;;
66886;SDS011;53798;51.680;5.976;2022-08-21T05:03:44;18.33;;;12.52;;
66886;SDS011;53798;51.680;5.976;2022-08-21T05:06:16;18.83;;;13.23;;
66886;SDS011;53798;51.680;5.976;2022-08-21T05:08:44;17.95;;;13.27;;
66886;SDS011;53798;51.680;5.976;2022-08-21T05:11:15;17.75;;;12.85;;
66886;SDS011;53798;51.680;5.976;2022-08-21T05:13:44;16.27;;;13.50;;
66886;SDS011;53798;51.680;5.976;2022-08-21T05:16:12;19.20;;;14.07;;
66886;SDS011;53798;51.680;5.976;2022-08-21T05:18:39;17.63;;;13.30;;
66886;SDS011;53798;51.680;5.976;2022-08-21T05:21:06;17.10;;;12.65;;
66886;SDS011;53798;51.680;5.976;2022-08-21T05:23:33;15.80;;;12.95;;
66886;SDS011;53798;51.680;5.976;2022-08-21T05:26:00;18.52;;;12.88;;
66886;SDS011;53798;51.680;5.976;2022-08-21T05:28:27;15.15;;;12.20;;
66886;SDS011;53798;51.680;5.976;2022-08-21T05:30:55;15.77;;;12.32;;
66886;SDS011;53798;51.680;5.976;2022-08-21T05:33:22;14.38;;;11.18;;
66886;SDS011;53798;51.680;5.976;2022-08-21T05:35:51;12.38;;;10.55;;
66886;SDS011;53798;51.680;5.976;2022-08-21T05:38:21;13.13;;;9.80;;
66886;SDS011;53798;51.680;5.976;2022-08-21T05:40:50;13.05;;;8.52;;
66886;SDS011;53798;51.680;5.976;2022-08-21T05:43:18;10.35;;;7.60;;
66886;SDS011;53798;51.680;5.976;2022-08-21T05:45:45;12.63;;;7.25;;
66886;SDS011;53798;51.680;5.976;2022-08-21T05:48:27;9.90;;;7.75;;
66886;SDS011;53798;51.680;5.976;2022-08-21T05:50:54;14.63;;;7.25;;
66886;SDS011;53798;51.680;5.976;2022-08-21T05:53:22;12.40;;;7.82;;
66886;SDS011;53798;51.680;5.976;2022-08-21T05:55:51;11.02;;;7.68;;
66886;SDS011;53798;51.680;5.976;2022-08-21T05:58:20;11.38;;;8.55;;
66886;SDS011;53798;51.680;5.976;2022-08-21T06:00:49;18.48;;;9.25;;
66886;SDS011;53798;51.680;5.976;2022-08-21T06:03:22;12.98;;;8.63;;
66886;SDS011;53798;51.680;5.976;2022-08-21T06:05:56;13.40;;;7.75;;
66886;SDS011;53798;51.680;5.976;2022-08-21T06:08:24;13.02;;;8.55;;
66886;SDS011;53798;51.680;5.976;2022-08-21T06:10:53;14.30;;;8.68;;
66886;SDS011;53798;51.680;5.976;2022-08-21T06:13:24;13.35;;;8.43;;
66886;SDS011;53798;51.680;5.976;2022-08-21T06:16:03;16.38;;;8.95;;
66886;SDS011;53798;51.680;5.976;2022-08-21T06:18:42;13.85;;;8.68;;
66886;SDS011;53798;51.680;5.976;2022-08-21T06:21:11;13.23;;;8.13;;
66886;SDS011;53798;51.680;5.976;2022-08-21T06:23:40;14.60;;;8.65;;
66886;SDS011;53798;51.680;5.976;2022-08-21T06:26:10;13.18;;;8.60;;
66886;SDS011;53798;51.680;5.976;2022-08-21T06:28:40;11.80;;;8.05;;
66886;SDS011;53798;51.680;5.976;2022-08-21T06:31:19;10.95;;;7.55;;
66886;SDS011;53798;51.680;5.976;2022-08-21T06:33:49;12.20;;;7.07;;
66886;SDS011;53798;51.680;5.976;2022-08-21T06:36:17;11.88;;;7.15;;
66886;SDS011;53798;51.680;5.976;2022-08-21T06:38:48;10.18;;;6.65;;
66886;SDS011;53798;51.680;5.976;2022-08-21T06:41:20;11.65;;;7.18;;
66886;SDS011;53798;51.680;5.976;2022-08-21T06:43:52;11.23;;;7.00;;
66886;SDS011;53798;51.680;5.976;2022-08-21T06:46:22;12.02;;;6.75;;
66886;SDS011;53798;51.680;5.976;2022-08-21T06:48:52;12.63;;;5.72;;
66886;SDS011;53798;51.680;5.976;2022-08-21T06:51:20;14.88;;;5.60;;
66886;SDS011;53798;51.680;5.976;2022-08-21T06:53:48;10.60;;;5.47;;
66886;SDS011;53798;51.680;5.976;2022-08-21T06:56:16;6.78;;;4.57;;
66886;SDS011;53798;51.680;5.976;2022-08-21T06:58:43;12.80;;;5.97;;
66886;SDS011;53798;51.680;5.976;2022-08-21T07:01:12;12.68;;;5.47;;
66886;SDS011;53798;51.680;5.976;2022-08-21T07:03:41;12.73;;;4.97;;
66886;SDS011;53798;51.680;5.976;2022-08-21T07:06:10;13.90;;;5.22;;
66886;SDS011;53798;51.680;5.976;2022-08-21T07:08:38;11.52;;;4.63;;
66886;SDS011;53798;51.680;5.976;2022-08-21T07:11:07;11.32;;;4.57;;
66886;SDS011;53798;51.680;5.976;2022-08-21T07:13:44;13.32;;;4.55;;
66886;SDS011;53798;51.680;5.976;2022-08-21T07:16:12;12.35;;;4.75;;
66886;SDS011;53798;51.680;5.976;2022-08-21T07:18:40;12.35;;;4.43;;
66886;SDS011;53798;51.680;5.976;2022-08-21T07:21:08;11.50;;;4.55;;
66886;SDS011;53798;51.680;5.976;2022-08-21T07:23:37;15.82;;;5.20;;
66886;SDS011;53798;51.680;5.976;2022-08-21T07:26:09;8.95;;;4.85;;
66886;SDS011;53798;51.680;5.976;2022-08-21T07:28:38;12.48;;;5.43;;
66886;SDS011;53798;51.680;5.976;2022-08-21T07:31:05;11.35;;;4.85;;
66886;SDS011;53798;51.680;5.976;2022-08-21T07:33:33;11.60;;;4.75;;
66886;SDS011;53798;51.680;5.976;2022-08-21T07:36:01;8.88;;;4.68;;
66886;SDS011;53798;51.680;5.976;2022-08-21T07:38:30;11.32;;;4.75;;
66886;SDS011;53798;51.680;5.976;2022-08-21T07:40:58;10.13;;;4.03;;
66886;SDS011;53798;51.680;5.976;2022-08-21T07:43:28;11.05;;;4.80;;
66886;SDS011;53798;51.680;5.976;2022-08-21T07:45:56;13.10;;;4.82;;
66886;SDS011;53798;51.680;5.976;2022-08-21T07:48:24;8.07;;;4.65;;
66886;SDS011;53798;51.680;5.976;2022-08-21T07:50:51;11.13;;;4.43;;
66886;SDS011;53798;51.680;5.976;2022-08-21T07:53:18;12.00;;;4.47;;
66886;SDS011;53798;51.680;5.976;2022-08-21T07:55:45;9.63;;;4.22;;
66886;SDS011;53798;51.680;5.976;2022-08-21T07:58:12;10.95;;;4.60;;
66886;SDS011;53798;51.680;5.976;2022-08-21T08:00:39;11.27;;;4.53;;
66886;SDS011;53798;51.680;5.976;2022-08-21T08:03:07;11.82;;;4.32;;
66886;SDS011;53798;51.680;5.976;2022-08-21T08:05:36;14.88;;;5.00;;
66886;SDS011;53798;51.680;5.976;2022-08-21T08:08:07;10.45;;;4.13;;
66886;SDS011;53798;51.680;5.976;2022-08-21T08:10:35;13.63;;;4.63;;
66886;SDS011;53798;51.680;5.976;2022-08-21T08:13:04;12.38;;;4.28;;
66886;SDS011;53798;51.680;5.976;2022-08-21T08:15:36;11.52;;;4.40;;
66886;SDS011;53798;51.680;5.976;2022-08-21T08:18:04;11.02;;;4.03;;
66886;SDS011;53798;51.680;5.976;2022-08-21T08:20:31;15.32;;;4.60;;
66886;SDS011;53798;51.680;5.976;2022-08-21T08:22:58;12.40;;;4.28;;
66886;SDS011;53798;51.680;5.976;2022-08-21T08:25:26;16.15;;;4.63;;
66886;SDS011;53798;51.680;5.976;2022-08-21T08:28:02;13.60;;;4.70;;
66886;SDS011;53798;51.680;5.976;2022-08-21T08:30:45;10.75;;;4.30;;
66886;SDS011;53798;51.680;5.976;2022-08-21T08:33:14;11.73;;;4.00;;
66886;SDS011;53798;51.680;5.976;2022-08-21T08:35:42;13.65;;;4.28;;
66886;SDS011;53798;51.680;5.976;2022-08-21T08:38:15;10.10;;;3.58;;
66886;SDS011;53798;51.680;5.976;2022-08-21T08:43:42;10.95;;;3.58;;
66886;SDS011;53798;51.680;5.976;2022-08-21T08:46:19;10.50;;;3.58;;
66886;SDS011;53798;51.680;5.976;2022-08-21T08:52:10;12.85;;;3.67;;
66886;SDS011;53798;51.680;5.976;2022-08-21T08:55:09;11.68;;;3.10;;
66886;SDS011;53798;51.680;5.976;2022-08-21T08:57:52;9.23;;;3.60;;
66886;SDS011;53798;51.680;5.976;2022-08-21T09:00:22;14.88;;;3.40;;
66886;SDS011;53798;51.680;5.976;2022-08-21T09:02:54;12.65;;;3.05;;
66886;SDS011;53798;51.680;5.976;2022-08-21T09:05:29;9.43;;;2.78;;
66886;SDS011;53798;51.680;5.976;2022-08-21T09:08:18;8.25;;;2.38;;
66886;SDS011;53798;51.680;5.976;2022-08-21T09:11:32;11.98;;;2.88;;
66886;SDS011;53798;51.680;5.976;2022-08-21T09:26:15;7.78;;;2.40;;
66886;SDS011;53798;51.680;5.976;2022-08-21T09:28:49;11.43;;;2.65;;
66886;SDS011;53798;51.680;5.976;2022-08-21T09:31:29;9.48;;;2.00;;
66886;SDS011;53798;51.680;5.976;2022-08-21T09:34:06;7.25;;;1.95;;
66886;SDS011;53798;51.680;5.976;2022-08-21T09:36:45;5.93;;;1.90;;
66886;SDS011;53798;51.680;5.976;2022-08-21T09:39:37;7.25;;;1.48;;
66886;SDS011;53798;51.680;5.976;2022-08-21T09:42:20;10.43;;;1.50;;
66886;SDS011;53798;51.680;5.976;2022-08-21T09:45:05;6.78;;;2.00;;
66886;SDS011;53798;51.680;5.976;2022-08-21T09:47:44;7.18;;;1.70;;
66886;SDS011;53798;51.680;5.976;2022-08-21T09:50:20;8.73;;;1.67;;
66886;SDS011;53798;51.680;5.976;2022-08-21T09:52:57;7.40;;;1.70;;
66886;SDS011;53798;51.680;5.976;2022-08-21T09:58:30;7.43;;;1.60;;
66886;SDS011;53798;51.680;5.976;2022-08-21T10:01:03;8.15;;;1.58;;
66886;SDS011;53798;51.680;5.976;2022-08-21T10:03:34;6.70;;;1.73;;
66886;SDS011;53798;51.680;5.976;2022-08-21T10:06:03;6.82;;;1.60;;
66886;SDS011;53798;51.680;5.976;2022-08-21T10:08:36;6.28;;;1.48;;
66886;SDS011;53798;51.680;5.976;2022-08-21T10:11:10;9.25;;;1.63;;
66886;SDS011;53798;51.680;5.976;2022-08-21T10:19:37;10.20;;;2.05;;
66886;SDS011;53798;51.680;5.976;2022-08-21T10:25:33;8.75;;;1.80;;
66886;SDS011;53798;51.680;5.976;2022-08-21T10:28:44;7.53;;;1.33;;
66886;SDS011;53798;51.680;5.976;2022-08-21T10:31:42;6.82;;;1.60;;
66886;SDS011;53798;51.680;5.976;2022-08-21T10:37:57;7.93;;;1.98;;
66886;SDS011;53798;51.680;5.976;2022-08-21T10:41:48;9.77;;;1.77;;
66886;SDS011;53798;51.680;5.976;2022-08-21T10:55:32;6.20;;;1.38;;
66886;SDS011;53798;51.680;5.976;2022-08-21T10:58:09;6.43;;;1.40;;
66886;SDS011;53798;51.680;5.976;2022-08-21T11:00:53;5.18;;;1.45;;
66886;SDS011;53798;51.680;5.976;2022-08-21T11:03:41;5.13;;;1.10;;
66886;SDS011;53798;51.680;5.976;2022-08-21T11:06:18;4.88;;;1.23;;
66886;SDS011;53798;51.680;5.976;2022-08-21T11:08:55;6.03;;;1.10;;
66886;SDS011;53798;51.680;5.976;2022-08-21T11:14:38;5.47;;;1.30;;
66886;SDS011;53798;51.680;5.976;2022-08-21T11:17:29;3.97;;;1.10;;
66886;SDS011;53798;51.680;5.976;2022-08-21T11:22:50;7.13;;;1.55;;
66886;SDS011;53798;51.680;5.976;2022-08-21T11:25:47;7.40;;;1.48;;
66886;SDS011;53798;51.680;5.976;2022-08-21T11:28:26;6.65;;;1.50;;
66886;SDS011;53798;51.680;5.976;2022-08-21T12:04:31;5.00;;;1.30;;
66886;SDS011;53798;51.680;5.976;2022-08-21T12:07:17;2.33;;;0.93;;
66886;SDS011;53798;51.680;5.976;2022-08-21T12:10:16;4.78;;;1.30;;
66886;SDS011;53798;51.680;5.976;2022-08-21T12:12:48;4.95;;;1.20;;
66886;SDS011;53798;51.680;5.976;2022-08-21T12:28:37;2.22;;;1.10;;
66886;SDS011;53798;51.680;5.976;2022-08-21T12:31:20;4.22;;;1.20;;
66886;SDS011;53798;51.680;5.976;2022-08-21T12:33:52;4.53;;;1.10;;
66886;SDS011;53798;51.680;5.976;2022-08-21T12:36:40;3.90;;;1.25;;
66886;SDS011;53798;51.680;5.976;2022-08-21T12:39:15;6.80;;;1.35;;
66886;SDS011;53798;51.680;5.976;2022-08-21T12:41:52;7.07;;;1.40;;
66886;SDS011;53798;51.680;5.976;2022-08-21T12:44:42;5.22;;;1.10;;
66886;SDS011;53798;51.680;5.976;2022-08-21T12:48:22;4.85;;;1.33;;
66886;SDS011;53798;51.680;5.976;2022-08-21T12:50:31;4.40;;;1.08;;
66886;SDS011;53798;51.680;5.976;2022-08-21T12:58:56;3.53;;;1.15;;
66886;SDS011;53798;51.680;5.976;2022-08-21T13:04:12;5.07;;;1.42;;
66886;SDS011;53798;51.680;5.976;2022-08-21T13:06:49;6.03;;;1.52;;
66886;SDS011;53798;51.680;5.976;2022-08-21T13:09:23;6.07;;;1.65;;
66886;SDS011;53798;51.680;5.976;2022-08-21T13:11:56;5.60;;;1.63;;
66886;SDS011;53798;51.680;5.976;2022-08-21T13:14:29;5.82;;;1.67;;
66886;SDS011;53798;51.680;5.976;2022-08-21T13:17:11;4.65;;;1.55;;
66886;SDS011;53798;51.680;5.976;2022-08-21T13:19:58;4.53;;;1.67;;
66886;SDS011;53798;51.680;5.976;2022-08-21T13:22:41;4.82;;;1.58;;
66886;SDS011;53798;51.680;5.976;2022-08-21T13:25:11;3.92;;;1.40;;
66886;SDS011;53798;51.680;5.976;2022-08-21T13:27:42;3.85;;;1.20;;
66886;SDS011;53798;51.680;5.976;2022-08-21T13:30:22;7.45;;;1.30;;
66886;SDS011;53798;51.680;5.976;2022-08-21T13:32:54;5.78;;;1.40;;
66886;SDS011;53798;51.680;5.976;2022-08-21T13:38:28;8.32;;;1.45;;
66886;SDS011;53798;51.680;5.976;2022-08-21T13:41:03;4.00;;;1.25;;
66886;SDS011;53798;51.680;5.976;2022-08-21T13:44:04;4.85;;;1.42;;
66886;SDS011;53798;51.680;5.976;2022-08-21T13:46:46;7.75;;;1.45;;
66886;SDS011;53798;51.680;5.976;2022-08-21T13:49:17;7.60;;;1.50;;
66886;SDS011;53798;51.680;5.976;2022-08-21T13:51:47;2.60;;;1.23;;
66886;SDS011;53798;51.680;5.976;2022-08-21T13:57:23;5.00;;;1.40;;
66886;SDS011;53798;51.680;5.976;2022-08-21T14:00:20;6.10;;;1.30;;
66886;SDS011;53798;51.680;5.976;2022-08-21T14:02:56;4.07;;;1.10;;
66886;SDS011;53798;51.680;5.976;2022-08-21T14:05:35;3.53;;;1.02;;
66886;SDS011;53798;51.680;5.976;2022-08-21T14:08:14;6.80;;;1.05;;
66886;SDS011;53798;51.680;5.976;2022-08-21T14:10:58;6.45;;;1.55;;
66886;SDS011;53798;51.680;5.976;2022-08-21T14:16:19;6.35;;;1.20;;
66886;SDS011;53798;51.680;5.976;2022-08-21T14:18:53;5.30;;;1.15;;
66886;SDS011;53798;51.680;5.976;2022-08-21T14:22:21;6.47;;;1.33;;
66886;SDS011;53798;51.680;5.976;2022-08-21T14:25:25;6.70;;;1.88;;
66886;SDS011;53798;51.680;5.976;2022-08-21T14:28:06;7.90;;;1.33;;
66886;SDS011;53798;51.680;5.976;2022-08-21T14:30:55;6.38;;;1.40;;
66886;SDS011;53798;51.680;5.976;2022-08-21T14:33:30;3.83;;;1.00;;
66886;SDS011;53798;51.680;5.976;2022-08-21T14:35:59;5.15;;;1.00;;
66886;SDS011;53798;51.680;5.976;2022-08-21T14:38:29;4.82;;;1.10;;
66886;SDS011;53798;51.680;5.976;2022-08-21T14:41:15;4.03;;;1.20;;
66886;SDS011;53798;51.680;5.976;2022-08-21T14:43:46;4.72;;;1.30;;
66886;SDS011;53798;51.680;5.976;2022-08-21T14:46:27;5.90;;;1.23;;
66886;SDS011;53798;51.680;5.976;2022-08-21T14:49:00;4.18;;;1.00;;
66886;SDS011;53798;51.680;5.976;2022-08-21T14:51:27;4.25;;;1.10;;
66886;SDS011;53798;51.680;5.976;2022-08-21T14:53:58;3.28;;;1.23;;
66886;SDS011;53798;51.680;5.976;2022-08-21T14:56:25;4.03;;;1.10;;
66886;SDS011;53798;51.680;5.976;2022-08-21T14:58:52;3.95;;;1.17;;
66886;SDS011;53798;51.680;5.976;2022-08-21T15:01:37;4.35;;;1.25;;
66886;SDS011;53798;51.680;5.976;2022-08-21T15:04:10;5.97;;;1.08;;
66886;SDS011;53798;51.680;5.976;2022-08-21T15:06:37;5.47;;;1.25;;
66886;SDS011;53798;51.680;5.976;2022-08-21T15:09:06;3.15;;;1.13;;
66886;SDS011;53798;51.680;5.976;2022-08-21T15:11:33;4.82;;;1.13;;
66886;SDS011;53798;51.680;5.976;2022-08-21T15:14:12;6.57;;;1.20;;
66886;SDS011;53798;51.680;5.976;2022-08-21T15:16:52;6.50;;;1.35;;
66886;SDS011;53798;51.680;5.976;2022-08-21T15:19:21;4.15;;;1.10;;
66886;SDS011;53798;51.680;5.976;2022-08-21T15:21:55;8.18;;;1.38;;
66886;SDS011;53798;51.680;5.976;2022-08-21T15:24:22;5.95;;;1.00;;
66886;SDS011;53798;51.680;5.976;2022-08-21T15:26:52;4.70;;;1.13;;
66886;SDS011;53798;51.680;5.976;2022-08-21T15:29:21;3.72;;;1.23;;
66886;SDS011;53798;51.680;5.976;2022-08-21T15:31:59;5.30;;;1.38;;
66886;SDS011;53798;51.680;5.976;2022-08-21T15:34:30;4.57;;;1.02;;
66886;SDS011;53798;51.680;5.976;2022-08-21T15:36:58;6.05;;;1.60;;
66886;SDS011;53798;51.680;5.976;2022-08-21T15:39:25;4.60;;;1.48;;
66886;SDS011;53798;51.680;5.976;2022-08-21T15:41:57;10.82;;;2.60;;
66886;SDS011;53798;51.680;5.976;2022-08-21T15:44:37;6.65;;;3.33;;
66886;SDS011;53798;51.680;5.976;2022-08-21T15:47:18;12.13;;;2.58;;
66886;SDS011;53798;51.680;5.976;2022-08-21T15:49:48;4.85;;;1.60;;
66886;SDS011;53798;51.680;5.976;2022-08-21T15:52:18;6.25;;;1.67;;
66886;SDS011;53798;51.680;5.976;2022-08-21T15:54:47;7.55;;;1.70;;
66886;SDS011;53798;51.680;5.976;2022-08-21T15:57:16;6.05;;;2.05;;
66886;SDS011;53798;51.680;5.976;2022-08-21T15:59:48;6.93;;;2.67;;
66886;SDS011;53798;51.680;5.976;2022-08-21T16:02:28;9.88;;;2.60;;
66886;SDS011;53798;51.680;5.976;2022-08-21T16:04:57;5.57;;;2.70;;
66886;SDS011;53798;51.680;5.976;2022-08-21T16:07:26;7.28;;;1.70;;
66886;SDS011;53798;51.680;5.976;2022-08-21T16:09:53;4.72;;;1.83;;
66886;SDS011;53798;51.680;5.976;2022-08-21T16:12:22;5.30;;;1.33;;
66886;SDS011;53798;51.680;5.976;2022-08-21T16:15:00;5.90;;;1.35;;
66886;SDS011;53798;51.680;5.976;2022-08-21T16:17:41;4.05;;;1.10;;
66886;SDS011;53798;51.680;5.976;2022-08-21T16:20:16;4.75;;;1.45;;
66886;SDS011;53798;51.680;5.976;2022-08-21T16:22:52;6.22;;;1.33;;
66886;SDS011;53798;51.680;5.976;2022-08-21T16:25:22;4.05;;;1.40;;
66886;SDS011;53798;51.680;5.976;2022-08-21T16:27:52;4.18;;;1.60;;
66886;SDS011;53798;51.680;5.976;2022-08-21T16:30:26;4.20;;;1.10;;
66886;SDS011;53798;51.680;5.976;2022-08-21T16:32:54;5.18;;;1.10;;
66886;SDS011;53798;51.680;5.976;2022-08-21T16:35:22;5.13;;;1.30;;
66886;SDS011;53798;51.680;5.976;2022-08-21T16:37:50;6.22;;;1.05;;
66886;SDS011;53798;51.680;5.976;2022-08-21T16:40:19;4.97;;;1.30;;
66886;SDS011;53798;51.680;5.976;2022-08-21T16:42:49;5.63;;;1.52;;
66886;SDS011;53798;51.680;5.976;2022-08-21T16:45:18;3.45;;;1.50;;
66886;SDS011;53798;51.680;5.976;2022-08-21T16:47:47;5.30;;;1.23;;
66886;SDS011;53798;51.680;5.976;2022-08-21T16:50:15;5.20;;;1.08;;
66886;SDS011;53798;51.680;5.976;2022-08-21T16:52:48;5.68;;;1.30;;
66886;SDS011;53798;51.680;5.976;2022-08-21T16:55:16;7.18;;;1.25;;
66886;SDS011;53798;51.680;5.976;2022-08-21T16:57:43;2.50;;;1.00;;
66886;SDS011;53798;51.680;5.976;2022-08-21T17:00:10;8.07;;;1.63;;
66886;SDS011;53798;51.680;5.976;2022-08-21T17:02:41;5.30;;;1.33;;
66886;SDS011;53798;51.680;5.976;2022-08-21T17:05:13;7.45;;;1.40;;
66886;SDS011;53798;51.680;5.976;2022-08-21T17:07:41;4.65;;;1.50;;
66886;SDS011;53798;51.680;5.976;2022-08-21T17:10:10;4.60;;;1.40;;
66886;SDS011;53798;51.680;5.976;2022-08-21T17:12:41;4.95;;;1.45;;
66886;SDS011;53798;51.680;5.976;2022-08-21T17:15:12;3.22;;;1.10;;
66886;SDS011;53798;51.680;5.976;2022-08-21T17:17:47;3.95;;;1.17;;